Aviation Digital Data Service (ADDS)

Output produced by METARs form (0036 UTC 24 May 2022)
found at http://www.aviationweather.gov/metar/data/
 
TAF SYCJ 232300Z 2400/2424 06008KT 9999 TS FEW017CB SCT100 
     TEMPO 2406/2411 0500 FG BKN003 
     BECMG 2412/2415 08010KT 9999 BKN018 SCT100